Terminal Aerodrome Forecast
Issued by NWS

Home | Current Version | Previous Version | Text Only | Print | Product List | Glossary On
Versions: 1 2 3 4 5 6 7 8 9 10 11 12 13 14 15 16 17 18
086
FTUS43 KICT 231739
TAFCNU
TAF
KCNU 231739Z 2318/2418 34016G23KT P6SM SCT200
     FM240000 32011KT P6SM SCT200
     FM240500 30010KT P6SM SCT150 WS020/33040KT
     FM241300 31014G20KT P6SM SKC
     FM241600 32020G28KT P6SM SKC=

USA.gov is the U.S. government's official web portal to all federal, state and local government web resources and services.